Time;durP1;ratioP1;P1;durP2;ratioP2;P2;SDS_P1;SDS_P2;PMS_P1;PMS_P2;Temp;Humidity;BMP_temperature;BMP_pressure;BME280_temperature;BME280_humidity;BME280_pressure;Samples;Min_cycle;Max_cycle;Signal;HPM_P1;HPM_P2
2024/01/08 00:02:14;;;;;;;5.03;2.85;;;-2.80;99.90;;;;;;4947008;28;20121;-88
2024/01/08 00:04:40;;;;;;;3.10;2.33;;;-2.80;99.90;;;;;;4926203;28;20050;-87
2024/01/08 00:07:06;;;;;;;3.85;2.47;;;-2.80;99.90;;;;;;4962921;28;20125;-88
2024/01/08 00:09:31;;;;;;;2.95;2.30;;;-2.80;99.90;;;;;;4931098;29;20086;-87
2024/01/08 00:11:57;;;;;;;3.47;2.63;;;-2.80;99.90;;;;;;4930273;28;20168;-88
2024/01/08 00:14:23;;;;;;;4.00;2.70;;;-2.80;99.90;;;;;;4935300;28;20062;-88
2024/01/08 00:16:49;;;;;;;4.05;2.63;;;-2.80;99.90;;;;;;4959011;28;20190;-88
2024/01/08 00:19:14;;;;;;;4.00;2.40;;;-2.80;99.90;;;;;;4950551;28;20047;-87
2024/01/08 00:21:41;;;;;;;4.25;2.25;;;-2.80;99.90;;;;;;4943930;28;20042;-88
2024/01/08 00:24:08;;;;;;;4.63;2.45;;;-2.80;99.90;;;;;;4941935;29;20065;-88
2024/01/08 00:26:34;;;;;;;3.30;2.22;;;-2.80;99.90;;;;;;4927552;28;20035;-88
2024/01/08 00:28:59;;;;;;;4.22;2.47;;;-2.80;99.90;;;;;;4924963;28;20102;-88
2024/01/08 00:31:25;;;;;;;3.38;2.50;;;-2.80;99.90;;;;;;4957514;28;20030;-86
2024/01/08 00:33:51;;;;;;;3.80;2.85;;;-2.80;99.90;;;;;;4942087;28;20082;-88
2024/01/08 00:36:17;;;;;;;3.80;2.58;;;-2.80;99.90;;;;;;4927731;29;20082;-87
2024/01/08 00:38:42;;;;;;;3.65;2.50;;;-2.80;99.90;;;;;;4942700;28;20079;-88
2024/01/08 00:41:08;;;;;;;3.33;2.40;;;-2.80;99.90;;;;;;4924433;29;20605;-87
2024/01/08 00:43:34;;;;;;;4.97;3.13;;;-2.80;99.90;;;;;;4932297;28;20089;-88
2024/01/08 00:46:04;;;;;;;5.40;2.85;;;-2.80;99.90;;;;;;4942312;28;20031;-88
2024/01/08 00:48:30;;;;;;;3.50;2.55;;;-2.90;99.90;;;;;;4927466;28;20035;-87
2024/01/08 00:50:55;;;;;;;3.63;2.67;;;-2.90;99.90;;;;;;4941438;28;20483;-87
2024/01/08 00:53:21;;;;;;;4.60;2.88;;;-2.90;99.90;;;;;;4931376;29;20075;-88
2024/01/08 00:55:47;;;;;;;3.30;2.42;;;-2.90;99.90;;;;;;4922415;28;20462;-88
2024/01/08 00:58:13;;;;;;;3.38;2.05;;;-2.90;99.90;;;;;;4931843;28;20558;-88
2024/01/08 01:00:38;;;;;;;4.25;2.75;;;-2.90;99.90;;;;;;4943247;29;20114;-88
2024/01/08 01:03:04;;;;;;;3.15;2.72;;;-2.90;99.90;;;;;;4932380;29;20046;-88
2024/01/08 01:05:30;;;;;;;4.82;2.83;;;-2.90;99.90;;;;;;4915021;29;20043;-87
2024/01/08 01:07:56;;;;;;;3.58;2.78;;;-2.80;99.90;;;;;;4930836;28;20031;-88
2024/01/08 01:10:21;;;;;;;4.78;3.13;;;-2.80;99.90;;;;;;4924444;28;20018;-88
2024/01/08 01:12:47;;;;;;;4.82;2.72;;;-2.80;99.90;;;;;;4944860;28;20036;-88
2024/01/08 01:15:13;;;;;;;2.70;2.28;;;-2.80;99.90;;;;;;4952608;28;20027;-88
2024/01/08 01:17:40;;;;;;;3.40;2.38;;;-2.80;99.90;;;;;;4932270;28;20042;-87
2024/01/08 01:20:06;;;;;;;4.53;2.67;;;-2.80;99.90;;;;;;4950017;28;20058;-88
2024/01/08 01:22:32;;;;;;;3.17;2.60;;;-2.80;99.90;;;;;;4909969;29;20051;-88
2024/01/08 01:24:58;;;;;;;5.57;2.90;;;-2.70;99.90;;;;;;4950510;28;20045;-88
2024/01/08 01:27:24;;;;;;;4.82;2.75;;;-2.80;99.90;;;;;;4947682;28;20035;-88
2024/01/08 01:29:49;;;;;;;4.25;2.80;;;-2.70;99.90;;;;;;4948198;28;20027;-86
2024/01/08 01:32:15;;;;;;;3.78;2.85;;;-2.70;99.90;;;;;;4937402;29;20050;-88
2024/01/08 01:34:41;;;;;;;3.53;2.78;;;-2.70;99.90;;;;;;4929877;28;20032;-88
2024/01/08 01:37:07;;;;;;;5.53;2.83;;;-2.70;99.90;;;;;;4926691;28;20035;-88
2024/01/08 01:39:33;;;;;;;4.30;2.72;;;-2.70;99.90;;;;;;4945747;28;20121;-87
2024/01/08 01:41:58;;;;;;;3.38;2.72;;;-2.70;99.90;;;;;;4942239;28;20122;-88
2024/01/08 01:44:24;;;;;;;3.38;2.70;;;-2.70;99.90;;;;;;4966360;28;20094;-87
2024/01/08 01:46:51;;;;;;;5.05;2.92;;;-2.70;99.90;;;;;;4940781;28;20049;-88
2024/01/08 01:49:19;;;;;;;4.72;3.08;;;-2.70;99.90;;;;;;4942794;28;20372;-88
2024/01/08 01:51:52;;;;;;;5.97;2.53;;;-2.80;99.90;;;;;;4957648;28;20114;-88
2024/01/08 01:54:21;;;;;;;5.18;3.20;;;-2.80;99.90;;;;;;4952739;28;20022;-87
2024/01/08 01:56:50;;;;;;;4.60;2.88;;;-2.80;99.90;;;;;;4955141;28;20031;-88
2024/01/08 01:59:19;;;;;;;5.32;2.67;;;-2.80;99.90;;;;;;4920056;29;20028;-87
2024/01/08 02:01:46;;;;;;;4.40;2.88;;;-2.70;99.90;;;;;;4939117;28;20049;-88
2024/01/08 02:04:13;;;;;;;4.35;2.95;;;-2.70;99.90;;;;;;4942382;28;20035;-88
2024/01/08 02:06:40;;;;;;;5.05;3.40;;;-2.80;99.90;;;;;;4921894;28;20500;-88
2024/01/08 02:09:07;;;;;;;4.63;3.20;;;-2.70;99.90;;;;;;4939912;28;20101;-89
2024/01/08 02:11:33;;;;;;;5.72;3.00;;;-2.70;99.90;;;;;;4960535;28;20027;-88
2024/01/08 02:13:59;;;;;;;4.20;3.05;;;-2.70;99.90;;;;;;4925358;28;20039;-88
2024/01/08 02:16:25;;;;;;;4.80;3.00;;;-2.70;99.90;;;;;;4926910;28;20070;-88
2024/01/08 02:18:51;;;;;;;5.82;2.90;;;-2.70;99.90;;;;;;4952110;28;20035;-88
2024/01/08 02:21:17;;;;;;;4.88;3.30;;;-2.70;99.90;;;;;;4937542;29;20031;-87
2024/01/08 02:23:43;;;;;;;3.90;2.75;;;-2.70;99.90;;;;;;4951805;28;20043;-88
2024/01/08 02:26:11;;;;;;;3.90;2.92;;;-2.70;99.90;;;;;;4921626;28;20558;-88
2024/01/08 02:28:36;;;;;;;4.68;2.95;;;-2.70;99.90;;;;;;4923400;29;20038;-87
2024/01/08 02:31:02;;;;;;;4.60;2.67;;;-2.80;99.90;;;;;;4938791;28;20031;-86
2024/01/08 02:33:28;;;;;;;5.25;3.17;;;-2.80;99.90;;;;;;4946185;28;20053;-88
2024/01/08 02:35:54;;;;;;;5.13;3.60;;;-2.80;99.90;;;;;;4960171;28;20492;-86
2024/01/08 02:38:20;;;;;;;4.28;2.78;;;-2.90;99.90;;;;;;4947271;28;20050;-87
2024/01/08 02:40:45;;;;;;;3.78;2.83;;;-2.90;99.90;;;;;;4923867;28;20043;-88
2024/01/08 02:43:11;;;;;;;4.25;3.10;;;-2.90;99.90;;;;;;4966926;28;20126;-87
2024/01/08 02:45:37;;;;;;;4.65;2.95;;;-2.90;99.90;;;;;;4942569;28;20407;-87
2024/01/08 02:48:03;;;;;;;3.88;3.00;;;-2.80;99.90;;;;;;4931144;28;20038;-87
2024/01/08 02:50:29;;;;;;;4.78;2.95;;;-2.80;99.90;;;;;;4924042;29;20039;-87
2024/01/08 02:52:54;;;;;;;5.05;3.25;;;-2.90;99.90;;;;;;4940901;28;20073;-87
2024/01/08 02:55:20;;;;;;;3.72;2.90;;;-2.90;99.90;;;;;;4923557;29;20029;-88
2024/01/08 02:57:46;;;;;;;4.45;3.08;;;-2.90;99.90;;;;;;4939841;28;20424;-88
2024/01/08 03:00:12;;;;;;;4.85;3.25;;;-2.90;99.90;;;;;;4956561;28;20079;-87
2024/01/08 03:02:39;;;;;;;6.50;2.92;;;-2.90;99.90;;;;;;4937150;28;20050;-88
2024/01/08 03:05:05;;;;;;;4.47;3.40;;;-2.90;99.90;;;;;;4931189;28;20487;-88
2024/01/08 03:07:31;;;;;;;5.05;3.30;;;-3.00;99.90;;;;;;4928517;28;20055;-87
2024/01/08 03:09:58;;;;;;;4.57;3.25;;;-2.90;99.90;;;;;;4946118;28;20147;-88
2024/01/08 03:12:24;;;;;;;4.82;3.10;;;-3.00;99.90;;;;;;4930856;28;20033;-87
2024/01/08 03:14:50;;;;;;;5.90;3.58;;;-2.90;99.90;;;;;;4939036;28;20036;-87
2024/01/08 03:17:16;;;;;;;4.55;2.83;;;-2.90;99.90;;;;;;4932080;28;20483;-87
2024/01/08 03:19:42;;;;;;;6.13;3.55;;;-2.90;99.90;;;;;;4945751;29;20070;-88
2024/01/08 03:22:08;;;;;;;4.43;2.75;;;-2.90;99.90;;;;;;4942284;28;20407;-87
2024/01/08 03:24:35;;;;;;;4.30;2.63;;;-2.90;99.90;;;;;;4953441;28;20035;-87
2024/01/08 03:27:01;;;;;;;3.78;2.85;;;-2.90;99.90;;;;;;4947736;28;20034;-87
2024/01/08 03:29:27;;;;;;;5.47;3.45;;;-2.90;99.90;;;;;;4913812;28;20138;-87
2024/01/08 03:31:53;;;;;;;5.70;3.42;;;-2.90;99.90;;;;;;4943695;28;20143;-88
2024/01/08 03:34:19;;;;;;;4.88;3.47;;;-2.90;99.90;;;;;;4922517;29;20282;-86
2024/01/08 03:36:48;;;;;;;5.85;3.40;;;-2.90;99.90;;;;;;4947198;28;20037;-88
2024/01/08 03:39:15;;;;;;;4.88;3.70;;;-2.90;99.90;;;;;;4961611;28;20499;-87
2024/01/08 03:41:42;;;;;;;6.78;3.60;;;-2.90;99.90;;;;;;4947952;28;20039;-87
2024/01/08 03:44:09;;;;;;;5.53;3.50;;;-2.90;99.90;;;;;;4967873;28;20043;-88
2024/01/08 03:46:36;;;;;;;3.95;3.03;;;-3.00;99.90;;;;;;4927740;29;20039;-87
2024/01/08 03:49:03;;;;;;;4.47;3.30;;;-3.00;99.90;;;;;;4963949;28;20126;-88
2024/01/08 03:51:29;;;;;;;5.60;3.28;;;-3.10;99.90;;;;;;4949963;28;20031;-87
2024/01/08 03:53:55;;;;;;;5.35;3.53;;;-3.00;99.90;;;;;;4950135;28;20035;-88
2024/01/08 03:56:21;;;;;;;5.13;3.33;;;-3.10;99.90;;;;;;4941246;28;20035;-87
2024/01/08 03:58:47;;;;;;;6.13;4.07;;;-3.00;99.90;;;;;;4946974;28;20031;-88
2024/01/08 04:01:13;;;;;;;4.80;3.63;;;-3.10;99.90;;;;;;4931564;28;20039;-86
2024/01/08 04:03:38;;;;;;;7.40;3.95;;;-3.00;99.90;;;;;;4956791;28;20503;-88
2024/01/08 04:06:04;;;;;;;4.70;3.35;;;-3.00;99.90;;;;;;4928897;28;20042;-86
2024/01/08 04:08:30;;;;;;;7.43;4.13;;;-3.00;99.90;;;;;;4946030;29;20121;-87
2024/01/08 04:10:56;;;;;;;6.45;4.00;;;-3.00;99.90;;;;;;4939345;28;20031;-89
2024/01/08 04:13:21;;;;;;;6.40;4.38;;;-3.00;99.90;;;;;;4938131;28;20034;-87
2024/01/08 04:15:47;;;;;;;6.53;4.20;;;-3.00;99.90;;;;;;4945154;28;20055;-87
2024/01/08 04:18:13;;;;;;;7.55;4.40;;;-3.00;99.90;;;;;;4927346;28;20046;-87
2024/01/08 04:20:40;;;;;;;7.00;4.38;;;-3.00;99.90;;;;;;4941337;29;20039;-87
2024/01/08 04:23:06;;;;;;;5.38;4.18;;;-3.10;99.90;;;;;;4965426;28;20039;-87
2024/01/08 04:25:31;;;;;;;6.03;3.90;;;-3.10;99.90;;;;;;4926229;29;20047;-87
2024/01/08 04:27:57;;;;;;;8.18;4.40;;;-3.10;99.90;;;;;;4957336;28;20031;-86
2024/01/08 04:30:23;;;;;;;5.15;4.05;;;-3.10;99.90;;;;;;4924384;29;20035;-88
2024/01/08 04:32:49;;;;;;;7.15;4.20;;;-3.00;99.90;;;;;;4943708;28;20039;-87
2024/01/08 04:35:15;;;;;;;6.30;3.90;;;-3.00;99.90;;;;;;4946216;28;20475;-89
2024/01/08 04:37:41;;;;;;;5.57;4.35;;;-3.00;99.90;;;;;;4929314;28;20031;-88
2024/01/08 04:40:07;;;;;;;8.40;4.15;;;-3.00;99.90;;;;;;4942347;28;20040;-88
2024/01/08 04:42:34;;;;;;;8.23;4.45;;;-3.00;99.90;;;;;;4945932;28;20076;-87
2024/01/08 04:44:59;;;;;;;6.85;4.70;;;-2.90;99.90;;;;;;4928966;28;20023;-87
2024/01/08 04:47:25;;;;;;;6.07;4.60;;;-2.90;99.90;;;;;;4934452;28;20031;-87
2024/01/08 04:49:51;;;;;;;6.20;4.45;;;-3.00;99.90;;;;;;4923782;28;20027;-87
2024/01/08 04:52:17;;;;;;;8.65;5.43;;;-2.90;99.90;;;;;;4945879;28;20034;-88
2024/01/08 04:54:43;;;;;;;9.27;5.05;;;-2.90;99.90;;;;;;4921092;28;20028;-87
2024/01/08 04:57:12;;;;;;;6.15;4.40;;;-2.90;99.90;;;;;;4957785;28;20039;-88
2024/01/08 04:59:41;;;;;;;7.10;4.95;;;-3.00;99.90;;;;;;4925024;28;20483;-86
2024/01/08 05:02:08;;;;;;;5.90;4.13;;;-3.00;99.90;;;;;;4959749;28;20031;-87
2024/01/08 05:04:34;;;;;;;6.47;4.10;;;-3.00;99.90;;;;;;4946058;28;20041;-86
2024/01/08 05:07:01;;;;;;;6.72;5.22;;;-3.00;99.90;;;;;;4964125;28;20047;-87
2024/01/08 05:09:26;;;;;;;6.47;4.45;;;-3.10;99.90;;;;;;4944486;29;20164;-88
2024/01/08 05:11:52;;;;;;;7.45;4.65;;;-3.00;99.90;;;;;;4941294;28;20043;-87
2024/01/08 05:14:18;;;;;;;6.20;4.45;;;-3.10;99.90;;;;;;4939334;28;20039;-88
2024/01/08 05:16:44;;;;;;;5.72;4.07;;;-3.10;99.90;;;;;;4959298;28;20031;-88
2024/01/08 05:19:10;;;;;;;5.50;3.85;;;-3.10;99.90;;;;;;4921700;28;20035;-89
2024/01/08 05:21:36;;;;;;;6.35;3.90;;;-3.10;99.90;;;;;;4940376;29;20070;-88
2024/01/08 05:24:02;;;;;;;6.15;3.95;;;-3.10;99.90;;;;;;4941926;28;20019;-89
2024/01/08 05:26:28;;;;;;;7.10;4.28;;;-3.10;99.90;;;;;;4944348;28;20574;-89
2024/01/08 05:28:54;;;;;;;6.55;3.42;;;-3.10;99.90;;;;;;4942890;28;20492;-89
2024/01/08 05:31:21;;;;;;;4.93;3.42;;;-3.10;99.90;;;;;;4925768;28;20035;-89
2024/01/08 05:33:47;;;;;;;6.00;3.38;;;-3.10;99.90;;;;;;4944888;29;20574;-88
2024/01/08 05:36:12;;;;;;;4.90;3.33;;;-3.20;99.90;;;;;;4936758;29;20143;-89
2024/01/08 05:38:38;;;;;;;5.03;3.47;;;-3.20;99.90;;;;;;4944373;29;20047;-88
2024/01/08 05:41:04;;;;;;;6.43;3.25;;;-3.20;99.90;;;;;;4944616;28;20070;-88
2024/01/08 05:43:31;;;;;;;6.80;3.42;;;-3.30;99.90;;;;;;4907882;29;20062;-89
2024/01/08 05:45:56;;;;;;;6.97;3.33;;;-3.30;99.90;;;;;;4925377;28;20045;-89
2024/01/08 05:48:22;;;;;;;5.47;3.30;;;-3.30;99.90;;;;;;4939166;29;20122;-88
2024/01/08 05:50:48;;;;;;;8.85;4.10;;;-3.40;99.90;;;;;;4928553;28;20042;-88
2024/01/08 05:53:14;;;;;;;5.75;3.80;;;-3.40;99.90;;;;;;4947186;28;20039;-89
2024/01/08 05:55:39;;;;;;;9.77;5.18;;;-3.40;99.90;;;;;;4942649;29;20077;-89
2024/01/08 05:58:05;;;;;;;7.68;4.10;;;-3.50;99.90;;;;;;4924250;29;20055;-89
2024/01/08 06:00:31;;;;;;;6.85;3.55;;;-3.60;99.90;;;;;;4932084;29;20046;-88
2024/01/08 06:02:57;;;;;;;7.28;3.70;;;-3.70;99.90;;;;;;4911755;28;20058;-88
2024/01/08 06:05:22;;;;;;;5.82;3.58;;;-3.70;99.90;;;;;;4956575;28;20493;-87
2024/01/08 06:07:48;;;;;;;8.73;4.60;;;-3.70;99.90;;;;;;4948104;28;20032;-88
2024/01/08 06:10:15;;;;;;;7.38;4.43;;;-3.80;99.90;;;;;;4908073;29;20054;-88
2024/01/08 06:12:40;;;;;;;6.85;4.10;;;-3.80;99.90;;;;;;4924119;28;20048;-88
2024/01/08 06:15:06;;;;;;;8.43;4.53;;;-3.90;99.90;;;;;;4947579;28;20027;-88
2024/01/08 06:17:32;;;;;;;6.75;4.30;;;-4.00;99.90;;;;;;4941198;29;20042;-88
2024/01/08 06:19:58;;;;;;;7.60;4.10;;;-3.90;99.90;;;;;;4945678;28;20042;-88
2024/01/08 06:22:24;;;;;;;7.18;4.45;;;-4.00;99.90;;;;;;4934913;29;20042;-89
2024/01/08 06:24:50;;;;;;;7.55;4.97;;;-4.10;99.90;;;;;;4942482;28;20058;-88
2024/01/08 06:27:16;;;;;;;7.10;4.15;;;-4.10;99.90;;;;;;4931354;28;20089;-87
2024/01/08 06:29:42;;;;;;;7.45;4.80;;;-4.20;99.90;;;;;;4957021;28;20435;-88
2024/01/08 06:32:10;;;;;;;7.97;4.85;;;-4.20;99.90;;;;;;4926526;28;20091;-87
2024/01/08 06:34:35;;;;;;;8.23;5.28;;;-4.20;99.90;;;;;;4922020;29;20035;-87
2024/01/08 06:37:01;;;;;;;8.90;5.10;;;-4.20;99.90;;;;;;4927405;28;20090;-88
2024/01/08 06:39:27;;;;;;;10.48;4.93;;;-4.30;99.90;;;;;;4945165;29;20062;-87
2024/01/08 06:41:52;;;;;;;8.60;4.50;;;-4.30;99.90;;;;;;4944683;28;20042;-87
2024/01/08 06:44:18;;;;;;;9.82;5.68;;;-4.40;99.90;;;;;;4923310;28;20034;-87
2024/01/08 06:46:44;;;;;;;7.65;5.05;;;-4.50;99.90;;;;;;4941741;28;20035;-87
2024/01/08 06:49:10;;;;;;;9.00;5.28;;;-4.50;99.90;;;;;;4922638;28;20085;-88
2024/01/08 06:51:40;;;;;;;9.57;5.47;;;-4.60;99.90;;;;;;4913496;28;20513;-88
2024/01/08 06:54:07;;;;;;;10.10;5.75;;;-4.70;99.90;;;;;;4942679;29;20038;-87
2024/01/08 06:56:33;;;;;;;11.10;5.90;;;-4.80;99.90;;;;;;4923516;28;20089;-88
2024/01/08 06:59:03;;;;;;;10.10;5.75;;;-4.80;99.90;;;;;;4942251;28;20051;-87
2024/01/08 07:01:31;;;;;;;11.25;6.82;;;-4.90;99.90;;;;;;4921391;29;20419;-88
2024/01/08 07:03:57;;;;;;;10.85;6.15;;;-5.00;99.90;;;;;;4945112;28;20049;-88
2024/01/08 07:06:24;;;;;;;10.80;5.60;;;-5.00;99.90;;;;;;4944971;28;20113;-87
2024/01/08 07:08:49;;;;;;;10.48;6.32;;;-5.10;99.90;;;;;;4929131;28;20154;-88
2024/01/08 07:11:20;;;;;;;13.02;6.03;;;-5.10;99.90;;;;;;4946520;28;20491;-87
2024/01/08 07:13:46;;;;;;;8.77;5.32;;;-5.10;99.90;;;;;;4957484;28;20404;-87
2024/01/08 07:16:12;;;;;;;9.45;6.28;;;-5.10;99.90;;;;;;4946511;28;20038;-87
2024/01/08 07:18:38;;;;;;;10.25;6.55;;;-5.20;99.90;;;;;;4946403;28;20031;-88
2024/01/08 07:21:04;;;;;;;11.50;6.40;;;-5.20;99.90;;;;;;4932030;28;20058;-88
2024/01/08 07:23:30;;;;;;;8.93;5.50;;;-5.20;99.90;;;;;;4938578;28;20042;-88
2024/01/08 07:25:56;;;;;;;10.00;6.28;;;-5.20;99.90;;;;;;4926653;28;20039;-88
2024/01/08 07:28:21;;;;;;;11.23;6.53;;;-5.20;99.90;;;;;;4933674;28;20027;-86
2024/01/08 07:30:47;;;;;;;10.68;6.60;;;-5.20;99.90;;;;;;4940908;28;20415;-88
2024/01/08 07:33:13;;;;;;;10.23;6.60;;;-5.20;99.90;;;;;;4927298;28;20412;-87
2024/01/08 07:35:39;;;;;;;10.32;6.53;;;-5.30;99.90;;;;;;4940684;29;20035;-86
2024/01/08 07:38:05;;;;;;;10.90;6.18;;;-5.30;99.90;;;;;;4958532;28;20045;-88
2024/01/08 07:40:31;;;;;;;11.57;6.57;;;-5.30;99.90;;;;;;4940603;29;20050;-88
2024/01/08 07:42:58;;;;;;;10.10;6.30;;;-5.30;99.90;;;;;;4928804;28;20035;-87
2024/01/08 07:45:26;;;;;;;11.15;6.57;;;-5.30;99.90;;;;;;4939213;29;20086;-87
2024/01/08 07:47:52;;;;;;;11.32;6.40;;;-5.30;99.90;;;;;;4924709;29;20045;-88
2024/01/08 07:50:19;;;;;;;10.93;6.93;;;-5.30;99.90;;;;;;4948706;29;20019;-88
2024/01/08 07:52:45;;;;;;;10.38;7.03;;;-5.30;99.90;;;;;;4947175;28;20035;-88
2024/01/08 07:55:12;;;;;;;12.75;7.65;;;-5.30;99.90;;;;;;4913832;28;20058;-88
2024/01/08 07:57:38;;;;;;;14.20;7.18;;;-5.40;99.90;;;;;;4927808;29;20027;-87
2024/01/08 08:00:09;;;;;;;12.70;7.68;;;-5.40;99.90;;;;;;4954660;28;20386;-89
2024/01/08 08:02:37;;;;;;;10.50;6.85;;;-5.40;99.90;;;;;;4946800;28;20041;-88
2024/01/08 08:05:03;;;;;;;13.88;7.90;;;-5.40;99.90;;;;;;4940865;28;20027;-90
2024/01/08 08:07:29;;;;;;;12.65;7.65;;;-5.40;99.90;;;;;;4930127;29;20413;-88
2024/01/08 08:09:55;;;;;;;10.60;6.90;;;-5.40;99.90;;;;;;4930162;28;20031;-87
2024/01/08 08:12:21;;;;;;;14.95;7.50;;;-5.50;99.90;;;;;;4966960;28;20030;-88
2024/01/08 08:15:06;;;;;;;14.40;8.70;;;-5.40;99.90;;;;;;4955498;28;20708;-89
2024/01/08 08:17:31;;;;;;;13.30;7.35;;;-5.40;99.90;;;;;;4947496;28;20043;-87
2024/01/08 08:19:57;;;;;;;13.40;8.23;;;-5.40;99.90;;;;;;4950256;29;20046;-90
2024/01/08 08:22:23;;;;;;;12.88;8.05;;;-5.40;99.90;;;;;;4946181;28;20047;-90
2024/01/08 08:24:49;;;;;;;11.88;7.53;;;-5.40;99.90;;;;;;4964120;28;20102;-91
2024/01/08 08:27:15;;;;;;;13.63;8.30;;;-5.40;99.90;;;;;;4933438;28;20058;-90
2024/01/08 08:29:42;;;;;;;13.32;8.25;;;-5.40;99.90;;;;;;4946825;28;20047;-89
2024/01/08 08:32:08;;;;;;;15.45;8.60;;;-5.30;99.90;;;;;;4948635;28;20035;-91
2024/01/08 08:34:35;;;;;;;14.55;8.60;;;-5.40;99.90;;;;;;4938060;29;20470;-90
2024/01/08 08:37:01;;;;;;;14.13;8.30;;;-5.30;99.90;;;;;;4947106;28;20024;-91
2024/01/08 08:39:27;;;;;;;13.55;8.55;;;-5.40;99.90;;;;;;4927388;29;20047;-89
2024/01/08 08:41:55;;;;;;;12.63;7.70;;;-5.30;99.90;;;;;;4927932;29;20031;-89
2024/01/08 08:44:21;;;;;;;14.38;8.98;;;-5.20;99.90;;;;;;4944259;29;20592;-89
2024/01/08 08:46:47;;;;;;;14.00;8.38;;;-5.10;99.90;;;;;;4958727;28;20038;-90
2024/01/08 08:49:13;;;;;;;15.38;9.05;;;-5.10;99.90;;;;;;4929153;29;20495;-90
2024/01/08 08:51:45;;;;;;;13.10;7.63;;;-5.10;99.90;;;;;;4945042;29;20031;-90
2024/01/08 08:54:14;;;;;;;13.75;8.57;;;-5.00;99.90;;;;;;4944011;29;20032;-90
2024/01/08 08:56:40;;;;;;;13.80;8.18;;;-5.00;99.90;;;;;;4960660;28;20042;-90
2024/01/08 08:59:06;;;;;;;18.13;8.32;;;-5.00;99.90;;;;;;4928817;29;20031;-90
2024/01/08 09:01:32;;;;;;;14.88;8.20;;;-4.90;99.90;;;;;;4939031;29;20095;-89
2024/01/08 09:03:58;;;;;;;16.80;9.10;;;-4.90;99.90;;;;;;4910582;29;20067;-89
2024/01/08 09:06:25;;;;;;;13.35;9.05;;;-4.90;99.90;;;;;;4931778;29;20035;-90
2024/01/08 09:08:52;;;;;;;13.82;8.13;;;-4.90;99.90;;;;;;4954864;29;20090;-90
2024/01/08 09:11:18;;;;;;;17.08;9.23;;;-4.90;99.90;;;;;;4947661;29;20031;-91
2024/01/08 09:13:44;;;;;;;17.10;8.48;;;-4.90;99.90;;;;;;4931976;28;20039;-90
2024/01/08 09:16:11;;;;;;;14.93;9.23;;;-4.90;99.90;;;;;;4942023;28;20138;-88
2024/01/08 09:18:37;;;;;;;14.27;8.45;;;-4.80;99.90;;;;;;4968584;28;20168;-90
2024/01/08 09:21:03;;;;;;;14.63;8.60;;;-4.80;99.90;;;;;;4923423;29;20068;-88
2024/01/08 09:23:29;;;;;;;16.17;9.60;;;-4.70;99.90;;;;;;4923280;29;20058;-87
2024/01/08 09:25:54;;;;;;;14.18;8.73;;;-4.70;99.90;;;;;;4940419;29;20484;-85
2024/01/08 09:28:20;;;;;;;15.68;8.95;;;-4.70;99.90;;;;;;4941092;28;20038;-86
2024/01/08 09:30:47;;;;;;;14.52;9.00;;;-4.60;99.90;;;;;;4945063;28;20118;-88
2024/01/08 09:33:13;;;;;;;14.68;8.65;;;-4.60;99.90;;;;;;4935627;28;20118;-87
2024/01/08 09:35:39;;;;;;;16.15;9.43;;;-4.50;99.90;;;;;;4949827;28;20083;-88
2024/01/08 09:38:05;;;;;;;15.48;8.80;;;-4.40;99.90;;;;;;4963326;28;20066;-89
2024/01/08 09:40:32;;;;;;;18.50;9.48;;;-4.40;99.90;;;;;;4957172;28;20023;-89
2024/01/08 09:43:01;;;;;;;15.85;9.13;;;-4.30;99.90;;;;;;4922829;28;20039;-89
2024/01/08 09:45:28;;;;;;;14.75;8.98;;;-4.30;99.90;;;;;;4933186;28;20183;-88
2024/01/08 09:47:54;;;;;;;17.50;9.45;;;-4.30;99.90;;;;;;4941435;28;20040;-90
2024/01/08 09:50:21;;;;;;;20.90;10.50;;;-4.20;99.90;;;;;;4931516;29;20427;-88
2024/01/08 09:52:49;;;;;;;25.48;10.90;;;-4.20;99.90;;;;;;4925173;29;20407;-89
2024/01/08 09:55:16;;;;;;;15.65;9.77;;;-4.30;99.90;;;;;;4956122;28;20027;-89
2024/01/08 09:57:41;;;;;;;21.45;10.38;;;-4.30;99.90;;;;;;4962168;28;20046;-88
2024/01/08 10:00:09;;;;;;;19.50;9.82;;;-4.30;99.90;;;;;;4941584;29;20032;-88
2024/01/08 10:02:38;;;;;;;17.38;8.98;;;-4.30;99.90;;;;;;4955939;29;20125;-87
2024/01/08 10:05:07;;;;;;;16.92;9.35;;;-4.20;99.90;;;;;;4939337;29;20444;-87
2024/01/08 10:07:36;;;;;;;16.40;8.77;;;-4.20;99.90;;;;;;4938464;29;20388;-88
2024/01/08 10:10:05;;;;;;;16.55;9.48;;;-4.30;99.90;;;;;;4938769;29;20455;-87
2024/01/08 10:12:34;;;;;;;18.02;10.07;;;-4.20;99.90;;;;;;4938938;29;20569;-88
2024/01/08 10:15:02;;;;;;;20.13;10.18;;;-4.20;99.90;;;;;;4938780;29;20511;-87
2024/01/08 10:17:30;;;;;;;18.02;9.60;;;-4.30;99.90;;;;;;4934215;29;20032;-88
2024/01/08 10:20:09;;;;;;;18.90;10.48;;;-4.40;99.90;;;;;;4936290;29;20039;-89
2024/01/08 10:22:35;;;;;;;18.38;10.68;;;-4.50;99.90;;;;;;4946032;29;20038;-90
2024/01/08 10:25:02;;;;;;;19.02;10.82;;;-4.50;99.90;;;;;;4924965;28;20043;-89
2024/01/08 10:27:29;;;;;;;18.25;10.40;;;-4.50;99.90;;;;;;4957898;28;20189;-89
2024/01/08 10:29:56;;;;;;;19.58;10.98;;;-4.60;99.90;;;;;;4924018;29;20032;-88
2024/01/08 10:32:25;;;;;;;19.05;11.48;;;-4.70;99.90;;;;;;4924396;29;20428;-90
2024/01/08 10:34:51;;;;;;;17.52;10.75;;;-4.70;99.90;;;;;;4949723;28;20027;-88
2024/01/08 10:37:21;;;;;;;19.70;11.43;;;-4.70;99.90;;;;;;4942690;29;20114;-88
2024/01/08 10:39:49;;;;;;;20.70;11.00;;;-4.70;99.90;;;;;;4921126;29;20038;-90
2024/01/08 10:42:15;;;;;;;18.70;11.27;;;-4.70;99.90;;;;;;4938910;28;20060;-89
2024/01/08 10:44:41;;;;;;;19.63;11.48;;;-4.70;99.90;;;;;;4936596;28;20483;-88
2024/01/08 10:47:10;;;;;;;21.40;11.23;;;-4.60;99.90;;;;;;4940865;28;20053;-88
2024/01/08 10:49:36;;;;;;;18.30;11.20;;;-4.60;99.90;;;;;;4940815;28;20491;-89
2024/01/08 10:52:16;;;;;;;18.50;10.75;;;-4.60;99.90;;;;;;4933810;28;20037;-88
2024/01/08 10:54:53;;;;;;;17.83;10.98;;;-4.50;99.90;;;;;;4946574;28;20090;-88
2024/01/08 10:57:21;;;;;;;17.65;10.18;;;-4.50;99.90;;;;;;4929943;29;20055;-88
2024/01/08 10:59:50;;;;;;;18.63;10.85;;;-4.40;99.90;;;;;;4944578;28;20551;-88
2024/01/08 11:02:16;;;;;;;17.13;9.80;;;-4.30;99.90;;;;;;4955340;28;20031;-88
2024/01/08 11:04:46;;;;;;;17.38;10.27;;;-4.30;99.90;;;;;;4921398;29;20082;-88
2024/01/08 11:07:13;;;;;;;19.23;10.60;;;-4.20;99.90;;;;;;4937327;29;20043;-88
2024/01/08 11:09:39;;;;;;;19.13;10.70;;;-4.20;99.90;;;;;;4949503;29;20077;-89
2024/01/08 11:12:10;;;;;;;18.65;10.48;;;-4.20;99.90;;;;;;4921865;29;20031;-90
2024/01/08 11:14:38;;;;;;;17.88;10.55;;;-4.20;99.90;;;;;;4938611;29;20034;-90
2024/01/08 11:17:09;;;;;;;17.58;10.38;;;-4.20;99.90;;;;;;4945788;28;20031;-90
2024/01/08 11:19:45;;;;;;;17.55;10.82;;;-4.20;99.90;;;;;;4936583;29;20031;-91
2024/01/08 11:22:11;;;;;;;19.05;10.38;;;-4.20;99.90;;;;;;4954751;28;20488;-92
2024/01/08 11:24:41;;;;;;;18.63;11.02;;;-4.20;99.90;;;;;;4934696;29;20519;-92
2024/01/08 11:27:07;;;;;;;20.92;10.88;;;-4.10;99.90;;;;;;4937458;29;20035;-91
2024/01/08 11:29:34;;;;;;;17.48;9.98;;;-4.10;99.90;;;;;;4911323;29;20380;-89
2024/01/08 11:32:29;;;;;;;16.35;10.07;;;-4.00;99.90;;;;;;4931980;29;20046;-89
2024/01/08 11:34:57;;;;;;;18.55;10.95;;;-4.00;99.90;;;;;;4928018;29;20105;-90
2024/01/08 11:37:30;;;;;;;19.67;10.57;;;-4.10;99.90;;;;;;4948531;28;20038;-88
2024/01/08 11:39:57;;;;;;;19.77;11.30;;;-4.10;99.90;;;;;;4953917;28;20027;-88
2024/01/08 11:42:23;;;;;;;18.00;10.43;;;-4.20;99.90;;;;;;4906390;29;20047;-90
2024/01/08 11:44:49;;;;;;;17.50;10.75;;;-4.30;99.90;;;;;;4936463;29;20090;-89
2024/01/08 11:47:16;;;;;;;17.73;10.77;;;-4.30;99.90;;;;;;4942873;29;20133;-88
2024/01/08 11:49:42;;;;;;;19.00;10.80;;;-4.40;99.90;;;;;;4904557;29;20042;-88
2024/01/08 11:52:09;;;;;;;16.52;10.45;;;-4.50;99.90;;;;;;4938927;28;20574;-88
2024/01/08 11:54:35;;;;;;;17.75;10.70;;;-4.50;99.90;;;;;;4917574;29;20039;-87
2024/01/08 11:57:05;;;;;;;18.25;11.02;;;-4.50;99.90;;;;;;4940998;29;20038;-91
2024/01/08 11:59:35;;;;;;;16.90;10.30;;;-4.50;99.90;;;;;;4940850;29;20063;-91
2024/01/08 12:02:20;;;;;;;15.02;9.80;;;-4.60;99.90;;;;;;4940836;28;20031;-91
2024/01/08 12:04:52;;;;;;;17.48;10.32;;;-4.60;99.90;;;;;;4944117;28;20129;-91
2024/01/08 12:07:19;;;;;;;16.55;9.85;;;-4.60;99.90;;;;;;4960069;28;20063;-90
2024/01/08 12:09:47;;;;;;;14.25;9.10;;;-4.60;99.90;;;;;;4944326;29;20412;-89
2024/01/08 12:12:16;;;;;;;16.58;9.93;;;-4.70;99.90;;;;;;4926527;28;20043;-89
2024/01/08 12:14:42;;;;;;;17.33;9.90;;;-4.70;99.90;;;;;;4949009;28;20078;-89
2024/01/08 12:17:10;;;;;;;17.05;9.60;;;-4.70;99.90;;;;;;4929131;29;20448;-89
2024/01/08 12:19:37;;;;;;;14.40;9.52;;;-4.70;99.90;;;;;;4931676;28;20415;-88
2024/01/08 12:22:04;;;;;;;16.40;9.90;;;-4.70;99.90;;;;;;4930234;28;20035;-87
2024/01/08 12:24:31;;;;;;;15.48;9.80;;;-4.70;99.90;;;;;;4959106;28;20089;-89
2024/01/08 12:27:02;;;;;;;14.60;9.02;;;-4.70;99.90;;;;;;4926466;28;20078;-89
2024/01/08 12:29:28;;;;;;;15.35;10.35;;;-4.70;99.90;;;;;;4944416;28;20063;-86
2024/01/08 12:31:58;;;;;;;14.23;8.80;;;-4.70;99.90;;;;;;4932453;29;20048;-87
2024/01/08 12:34:31;;;;;;;15.57;9.93;;;-4.80;99.90;;;;;;4943184;28;20034;-89
2024/01/08 12:37:00;;;;;;;14.93;9.98;;;-4.80;99.90;;;;;;4928974;28;20035;-89
2024/01/08 12:39:29;;;;;;;17.00;10.10;;;-4.70;99.90;;;;;;4952059;28;20479;-89